Time;durP1;ratioP1;P1;durP2;ratioP2;P2;SDS_P1;SDS_P2;PMS_P1;PMS_P2;Temp;Humidity;BMP_temperature;BMP_pressure;BME280_temperature;BME280_humidity;BME280_pressure;Samples;Min_cycle;Max_cycle;Signal;HPM_P1;HPM_P2
2023/04/28 00:01:14;;;;;;;7.18;2.45;;;;;;;5.33;48.48;94131.47;5062068;28;20027;-73
2023/04/28 00:03:40;;;;;;;7.70;2.40;;;;;;;5.30;48.67;94129.41;5062106;28;20048;-73
2023/04/28 00:06:06;;;;;;;6.07;2.00;;;;;;;5.22;48.56;94130.75;5062142;28;20074;-73
2023/04/28 00:08:31;;;;;;;4.60;1.80;;;;;;;5.15;48.98;94127.59;5062302;28;20033;-73
2023/04/28 00:10:57;;;;;;;5.13;2.28;;;;;;;5.16;49.07;94131.84;5061958;28;20095;-73
2023/04/28 00:13:22;;;;;;;9.65;2.22;;;;;;;5.13;48.84;94132.38;5062142;28;20045;-73
2023/04/28 00:15:53;;;;;;;5.82;2.13;;;;;;;5.12;49.20;94136.09;5062137;28;20045;-72
2023/04/28 00:18:20;;;;;;;4.57;1.92;;;;;;;5.09;49.13;94131.31;5062083;28;20029;-73
2023/04/28 00:20:46;;;;;;;3.58;1.75;;;;;;;5.09;49.36;94137.44;5061766;28;20033;-73
2023/04/28 00:23:11;;;;;;;7.07;1.85;;;;;;;5.01;49.28;94132.72;5061798;28;20025;-73
2023/04/28 00:25:37;;;;;;;7.25;1.88;;;;;;;4.98;49.50;94130.59;5062184;28;20052;-73
2023/04/28 00:28:02;;;;;;;4.03;2.00;;;;;;;4.96;49.59;94133.50;5061841;28;20096;-73
2023/04/28 00:30:31;;;;;;;6.00;1.70;;;;;;;4.93;49.74;94138.56;5062046;28;20029;-73
2023/04/28 00:32:56;;;;;;;6.22;2.20;;;;;;;4.93;50.19;94143.84;5061957;28;20056;-73
2023/04/28 00:35:22;;;;;;;7.60;2.20;;;;;;;4.89;49.77;94138.28;5065632;28;20025;-72
2023/04/28 00:37:48;;;;;;;11.73;1.98;;;;;;;4.82;49.90;94141.22;5065808;28;20084;-75
2023/04/28 00:40:13;;;;;;;2.88;1.80;;;;;;;4.83;49.95;94137.50;5065779;28;20021;-73
2023/04/28 00:42:38;;;;;;;4.97;2.05;;;;;;;4.83;49.72;94152.59;5065671;28;20021;-73
2023/04/28 00:45:04;;;;;;;3.58;1.63;;;;;;;4.75;50.12;94143.34;5064573;28;20036;-73
2023/04/28 00:47:34;;;;;;;3.78;1.90;;;;;;;4.78;50.49;94145.47;5065550;28;20025;-73
2023/04/28 00:50:01;;;;;;;5.30;2.08;;;;;;;4.75;50.02;94143.34;5065732;28;20144;-73
2023/04/28 00:52:27;;;;;;;5.07;2.28;;;;;;;4.70;50.23;94156.59;5065688;28;20088;-72
2023/04/28 00:54:54;;;;;;;5.50;2.33;;;;;;;4.72;50.04;94148.38;5065608;28;20017;-73
2023/04/28 00:57:19;;;;;;;5.85;2.10;;;;;;;4.67;50.39;94146.53;5065476;28;20024;-72
2023/04/28 00:59:44;;;;;;;6.15;1.75;;;;;;;4.62;50.25;94152.63;5065428;28;20021;-73
2023/04/28 01:02:16;;;;;;;6.30;2.03;;;;;;;4.63;50.32;94150.78;5065396;28;20104;-72
2023/04/28 01:04:42;;;;;;;7.00;3.15;;;;;;;4.60;50.45;94149.47;5065537;28;20196;-72
2023/04/28 01:07:08;;;;;;;4.28;2.20;;;;;;;4.59;50.62;94155.81;5065047;28;20016;-72
2023/04/28 01:09:34;;;;;;;7.00;1.95;;;;;;;4.52;50.22;94154.50;5065247;28;20028;-72
2023/04/28 01:11:59;;;;;;;4.65;1.90;;;;;;;4.51;50.31;94161.63;5064890;28;20327;-72
2023/04/28 01:14:24;;;;;;;6.80;2.08;;;;;;;4.55;50.20;94161.91;5065234;28;20027;-72
2023/04/28 01:16:50;;;;;;;4.60;1.70;;;;;;;4.51;49.84;94166.91;5065443;28;20013;-72
2023/04/28 01:19:22;;;;;;;3.55;1.95;;;;;;;4.43;49.83;94162.16;5065062;28;20021;-72
2023/04/28 01:21:48;;;;;;;3.50;1.83;;;;;;;4.48;49.87;94164.00;5064916;28;20025;-72
2023/04/28 01:24:14;;;;;;;5.55;2.05;;;;;;;4.50;50.13;94160.06;5065020;28;20093;-72
2023/04/28 01:26:40;;;;;;;3.35;1.85;;;;;;;4.47;49.73;94162.44;5063584;28;20064;-72
2023/04/28 01:29:05;;;;;;;7.38;2.47;;;;;;;4.44;49.81;94158.50;5064464;28;20033;-73
2023/04/28 01:31:31;;;;;;;5.28;2.33;;;;;;;4.35;49.66;94152.16;5064783;28;20095;-72
2023/04/28 01:33:56;;;;;;;3.58;1.77;;;;;;;4.46;49.44;94169.56;5064828;28;20044;-72
2023/04/28 01:36:22;;;;;;;5.22;2.03;;;;;;;4.48;49.41;94159.53;5065009;28;20021;-72
2023/04/28 01:38:49;;;;;;;4.78;1.70;;;;;;;4.46;49.80;94161.66;5064673;28;20246;-72
2023/04/28 01:41:15;;;;;;;6.60;1.70;;;;;;;4.49;49.99;94160.31;5064806;28;20062;-72
2023/04/28 01:43:42;;;;;;;3.58;2.20;;;;;;;4.48;49.52;94172.75;5064538;28;20029;-72
2023/04/28 01:46:08;;;;;;;4.78;1.92;;;;;;;4.45;49.49;94160.06;5064335;28;20025;-72
2023/04/28 01:48:33;;;;;;;7.07;1.92;;;;;;;4.40;49.73;94163.50;5063028;28;20207;-72
2023/04/28 01:50:59;;;;;;;3.20;1.83;;;;;;;4.37;50.00;94166.66;5063269;28;20040;-72
2023/04/28 01:53:24;;;;;;;8.63;2.25;;;;;;;4.37;49.68;94163.25;5064607;28;20020;-74
2023/04/28 01:55:50;;;;;;;5.43;1.65;;;;;;;4.43;49.90;94162.16;5064487;28;20082;-74
2023/04/28 01:58:16;;;;;;;3.30;1.65;;;;;;;4.41;49.96;94166.94;5064313;28;20032;-74
2023/04/28 02:00:41;;;;;;;4.70;1.58;;;;;;;4.31;50.47;94157.16;5064244;28;20028;-73
2023/04/28 02:03:07;;;;;;;3.15;2.00;;;;;;;4.35;50.60;94165.34;5064283;28;20028;-74
2023/04/28 02:05:32;;;;;;;5.25;1.70;;;;;;;4.35;51.02;94157.44;5064669;28;20024;-74
2023/04/28 02:07:57;;;;;;;8.48;2.03;;;;;;;4.34;51.15;94158.50;5064348;28;20021;-74
2023/04/28 02:10:23;;;;;;;5.38;2.80;;;;;;;4.33;51.43;94167.47;5064317;28;20023;-74
2023/04/28 02:12:48;;;;;;;7.22;1.98;;;;;;;4.28;51.43;94162.22;5063995;28;20041;-74
2023/04/28 02:15:14;;;;;;;8.05;2.10;;;;;;;4.32;51.45;94163.25;5063615;28;20025;-74
2023/04/28 02:17:40;;;;;;;4.18;1.77;;;;;;;4.30;51.34;94170.66;5063885;28;20023;-74
2023/04/28 02:20:06;;;;;;;6.53;2.40;;;;;;;4.30;51.44;94174.06;5064307;28;20028;-74
2023/04/28 02:22:31;;;;;;;7.97;1.85;;;;;;;4.33;51.19;94183.31;5063928;28;20055;-74
2023/04/28 02:24:57;;;;;;;7.22;2.17;;;;;;;4.27;50.91;94179.09;5063857;28;20040;-74
2023/04/28 02:27:22;;;;;;;10.35;2.45;;;;;;;4.27;51.09;94184.38;5062468;28;20048;-74
2023/04/28 02:29:48;;;;;;;9.73;2.78;;;;;;;4.29;50.88;94179.59;5063340;28;20084;-74
2023/04/28 02:32:13;;;;;;;3.08;1.50;;;;;;;4.28;50.96;94180.69;5063906;28;20028;-74
2023/04/28 02:34:39;;;;;;;6.03;2.10;;;;;;;4.32;51.05;94184.38;5063684;28;20025;-74
2023/04/28 02:37:04;;;;;;;3.33;1.67;;;;;;;4.33;51.02;94184.09;5063488;28;20096;-74
2023/04/28 02:39:31;;;;;;;7.10;2.05;;;;;;;4.25;51.84;94178.56;5063555;28;20020;-74
2023/04/28 02:41:57;;;;;;;5.60;1.63;;;;;;;4.14;51.56;94183.84;5063315;28;20021;-74
2023/04/28 02:44:23;;;;;;;6.50;2.10;;;;;;;4.19;51.63;94183.84;5063367;28;20063;-72
2023/04/28 02:46:48;;;;;;;3.75;1.88;;;;;;;4.19;51.77;94191.78;5063604;28;20215;-72
2023/04/28 02:49:13;;;;;;;5.57;2.10;;;;;;;4.16;51.54;94188.88;5063037;28;20227;-72
2023/04/28 02:51:39;;;;;;;7.55;1.83;;;;;;;4.18;51.40;94194.66;5063313;28;20036;-72
2023/04/28 02:54:05;;;;;;;4.82;2.13;;;;;;;4.11;52.01;94191.47;5063099;28;20021;-73
2023/04/28 02:56:30;;;;;;;6.40;1.98;;;;;;;4.13;51.43;94195.47;5061497;28;20017;-74
2023/04/28 02:58:56;;;;;;;5.07;2.33;;;;;;;4.12;51.28;94193.09;5063231;28;20307;-74
2023/04/28 03:01:22;;;;;;;3.35;1.70;;;;;;;4.14;51.26;94198.88;5062986;28;20040;-74
2023/04/28 03:03:47;;;;;;;4.03;2.17;;;;;;;4.06;51.10;94194.91;5061713;28;20017;-73
2023/04/28 03:06:12;;;;;;;7.53;2.15;;;;;;;4.05;51.02;94203.91;5063035;28;20132;-73
2023/04/28 03:08:38;;;;;;;6.88;2.13;;;;;;;4.10;50.80;94205.75;5062493;28;20070;-73
2023/04/28 03:11:03;;;;;;;7.15;1.75;;;;;;;4.05;50.43;94193.34;5062877;28;20029;-73
2023/04/28 03:13:29;;;;;;;6.55;1.83;;;;;;;4.13;50.73;94206.00;5062988;28;20040;-73
2023/04/28 03:15:55;;;;;;;5.47;1.90;;;;;;;4.14;50.52;94206.81;5062744;28;20028;-73
2023/04/28 03:18:22;;;;;;;4.18;1.92;;;;;;;4.10;50.46;94198.63;5062844;28;20035;-73
2023/04/28 03:20:48;;;;;;;6.50;2.17;;;;;;;4.03;50.28;94200.75;5062650;28;20036;-73
2023/04/28 03:23:13;;;;;;;4.88;1.95;;;;;;;4.01;50.32;94205.47;5062791;28;20239;-73
2023/04/28 03:25:39;;;;;;;5.30;2.38;;;;;;;4.10;50.45;94206.53;5062658;28;20028;-73
2023/04/28 03:28:04;;;;;;;7.28;1.83;;;;;;;4.07;50.25;94216.81;5062837;28;20074;-73
2023/04/28 03:30:30;;;;;;;4.55;1.80;;;;;;;4.05;50.39;94225.00;5062642;28;20029;-73
2023/04/28 03:32:55;;;;;;;5.30;1.77;;;;;;;4.09;50.57;94223.44;5062620;28;20055;-73
2023/04/28 03:35:21;;;;;;;3.65;1.70;;;;;;;4.04;50.07;94228.69;5062491;28;20059;-73
2023/04/28 03:37:47;;;;;;;6.10;2.38;;;;;;;4.03;50.18;94240.31;5062647;28;20017;-73
2023/04/28 03:40:12;;;;;;;3.97;1.70;;;;;;;4.07;50.15;94235.28;5062414;28;20303;-73
2023/04/28 03:42:38;;;;;;;4.00;1.55;;;;;;;4.07;50.34;94236.09;5062303;28;20029;-73
2023/04/28 03:45:03;;;;;;;3.50;1.83;;;;;;;4.10;50.58;94246.09;5062479;28;20023;-74
2023/04/28 03:47:29;;;;;;;4.85;1.70;;;;;;;4.06;49.69;94239.75;5062387;28;20027;-72
2023/04/28 03:49:55;;;;;;;3.72;1.65;;;;;;;4.12;49.92;94238.72;5062041;28;20327;-72
2023/04/28 03:52:21;;;;;;;6.75;1.98;;;;;;;4.16;49.45;94252.97;5062517;28;20063;-72
2023/04/28 03:54:46;;;;;;;5.10;2.00;;;;;;;4.21;49.82;94266.19;5062365;28;20025;-73
2023/04/28 03:57:12;;;;;;;13.52;2.35;;;;;;;4.28;49.38;94259.84;5062350;28;20024;-73
2023/04/28 03:59:37;;;;;;;10.43;2.58;;;;;;;4.28;49.56;94254.56;5062196;28;20029;-73
2023/04/28 04:02:03;;;;;;;4.25;2.20;;;;;;;4.29;49.10;94258.78;5062292;28;20041;-73
2023/04/28 04:04:29;;;;;;;4.88;2.10;;;;;;;4.35;48.65;94255.88;5060940;28;20029;-73
2023/04/28 04:06:54;;;;;;;6.35;2.10;;;;;;;4.36;48.90;94269.88;5062232;28;20059;-73
2023/04/28 04:09:19;;;;;;;7.75;2.80;;;;;;;4.44;48.47;94269.34;5064106;28;20370;-73
2023/04/28 04:11:45;;;;;;;6.55;1.85;;;;;;;4.51;48.36;94275.13;5066344;28;20032;-73
2023/04/28 04:14:10;;;;;;;3.95;1.90;;;;;;;4.51;48.48;94271.72;5065917;28;20032;-73
2023/04/28 04:16:36;;;;;;;7.43;1.88;;;;;;;4.52;48.39;94270.63;5065787;28;20024;-73
2023/04/28 04:19:01;;;;;;;7.68;1.70;;;;;;;4.62;47.79;94268.81;5066229;28;20063;-73
2023/04/28 04:21:27;;;;;;;6.43;2.05;;;;;;;4.65;48.07;94274.63;5066297;28;20335;-73
2023/04/28 04:23:53;;;;;;;4.50;1.85;;;;;;;4.70;48.11;94274.59;5066098;28;20065;-73
2023/04/28 04:26:18;;;;;;;6.80;2.53;;;;;;;4.81;47.83;94279.63;5065889;28;20025;-73
2023/04/28 04:28:44;;;;;;;9.93;3.40;;;;;;;4.81;47.58;94278.81;5066117;28;20029;-74
2023/04/28 04:31:09;;;;;;;5.93;1.70;;;;;;;4.82;47.80;94273.28;5065365;28;20036;-76
2023/04/28 04:33:36;;;;;;;3.40;1.58;;;;;;;4.85;47.86;94285.16;5065912;28;20013;-73
2023/04/28 04:36:01;;;;;;;8.63;2.30;;;;;;;4.89;47.69;94286.22;5065838;28;20025;-73
2023/04/28 04:38:27;;;;;;;6.70;1.90;;;;;;;4.87;47.43;94288.31;5065745;28;20346;-73
2023/04/28 04:40:52;;;;;;;2.83;1.42;;;;;;;4.92;47.54;94290.94;5065657;28;20029;-73
2023/04/28 04:43:18;;;;;;;8.38;2.50;;;;;;;4.98;47.81;94297.81;5065571;28;20223;-73
2023/04/28 04:45:44;;;;;;;5.43;1.88;;;;;;;4.98;48.00;94302.31;5065645;28;20359;-72
2023/04/28 04:48:10;;;;;;;7.00;2.63;;;;;;;4.91;47.97;94299.94;5065254;28;20021;-74
2023/04/28 04:50:35;;;;;;;6.45;1.70;;;;;;;4.94;47.66;94299.41;5065764;28;20303;-74
2023/04/28 04:53:01;;;;;;;4.72;2.00;;;;;;;4.99;48.12;94302.03;5065966;28;20028;-74
2023/04/28 04:55:26;;;;;;;12.45;2.47;;;;;;;5.05;48.54;94304.66;5065448;28;20137;-74
2023/04/28 04:57:52;;;;;;;6.30;2.15;;;;;;;5.02;48.56;94306.78;5063816;28;20330;-73
2023/04/28 05:00:18;;;;;;;10.65;1.98;;;;;;;5.08;48.16;94309.44;5065443;28;20028;-73
2023/04/28 05:02:43;;;;;;;2.50;1.70;;;;;;;5.15;48.74;94304.63;5065408;28;20224;-74
2023/04/28 05:05:09;;;;;;;6.32;2.42;;;;;;;5.20;48.47;94309.94;5065204;28;20021;-74
2023/04/28 05:07:35;;;;;;;5.13;2.55;;;;;;;5.30;47.73;94317.84;5065432;28;20123;-74
2023/04/28 05:10:03;;;;;;;10.90;2.17;;;;;;;5.31;48.66;94330.00;5064875;28;20029;-74
2023/04/28 05:12:29;;;;;;;4.65;2.08;;;;;;;5.29;48.43;94328.66;5064828;28;20092;-74
2023/04/28 05:14:54;;;;;;;8.40;2.38;;;;;;;5.28;48.77;94325.25;5064208;28;20048;-74
2023/04/28 05:17:20;;;;;;;4.28;1.80;;;;;;;5.26;48.42;94321.28;5063892;28;20057;-76
2023/04/28 05:19:45;;;;;;;3.70;2.17;;;;;;;5.23;49.39;94330.53;5063475;28;20028;-74
2023/04/28 05:22:11;;;;;;;8.25;2.78;;;;;;;5.34;48.76;94332.09;5064279;28;20094;-74
2023/04/28 05:24:36;;;;;;;5.00;2.20;;;;;;;5.35;49.46;94320.47;5063457;28;20087;-74
2023/04/28 05:27:02;;;;;;;6.93;2.13;;;;;;;5.37;48.82;94331.56;5064071;28;20044;-73
2023/04/28 05:29:27;;;;;;;5.95;2.20;;;;;;;5.40;47.40;94323.09;5063915;28;20021;-73
2023/04/28 05:31:53;;;;;;;14.02;2.72;;;;;;;5.34;48.66;94316.25;5063851;28;20021;-74
2023/04/28 05:34:18;;;;;;;6.45;2.08;;;;;;;5.38;48.94;94322.56;5063558;28;20025;-74
2023/04/28 05:36:44;;;;;;;6.30;2.20;;;;;;;5.43;48.72;94332.34;5063304;28;20040;-74
2023/04/28 05:39:10;;;;;;;3.50;1.88;;;;;;;5.49;48.60;94315.41;5063423;28;20023;-73
2023/04/28 05:41:35;;;;;;;9.65;1.75;;;;;;;5.55;47.97;94314.31;5063578;28;20021;-73
2023/04/28 05:44:01;;;;;;;7.15;2.13;;;;;;;5.64;48.67;94309.28;5063012;28;20032;-73
2023/04/28 05:46:27;;;;;;;7.65;2.17;;;;;;;5.71;47.47;94325.63;5063469;28;20172;-74
2023/04/28 05:48:52;;;;;;;7.53;2.88;;;;;;;5.71;47.52;94315.06;5063680;28;20069;-73
2023/04/28 05:51:18;;;;;;;7.60;2.63;;;;;;;5.85;47.80;94319.78;5063369;28;20029;-73
2023/04/28 05:53:47;;;;;;;4.53;2.25;;;;;;;5.83;47.41;94326.09;5063422;28;20025;-74
2023/04/28 05:56:13;;;;;;;9.25;2.63;;;;;;;5.81;46.56;94333.53;5063015;28;20048;-74
2023/04/28 05:58:39;;;;;;;4.20;1.92;;;;;;;5.79;46.67;94325.06;5063140;28;20036;-74
2023/04/28 06:01:04;;;;;;;5.45;2.05;;;;;;;5.78;46.58;94327.97;5063077;28;20083;-74
2023/04/28 06:03:30;;;;;;;8.07;3.22;;;;;;;5.69;46.86;94325.13;5063121;28;20029;-73
2023/04/28 06:05:55;;;;;;;4.88;2.47;;;;;;;5.67;46.98;94319.31;5062736;28;20033;-72
2023/04/28 06:08:21;;;;;;;8.85;2.70;;;;;;;5.82;46.97;94335.13;5062809;28;20104;-73
2023/04/28 06:10:46;;;;;;;6.90;2.35;;;;;;;5.81;46.77;94341.47;5063233;28;20016;-73
2023/04/28 06:13:12;;;;;;;6.13;2.42;;;;;;;5.88;47.21;94337.72;5017146;28;1319108;-73
2023/04/28 06:15:38;;;;;;;11.32;2.55;;;;;;;5.95;45.90;94320.53;5063730;28;20032;-73
2023/04/28 06:18:05;;;;;;;8.10;2.17;;;;;;;6.04;45.67;94331.34;5063747;28;20075;-74
2023/04/28 06:20:31;;;;;;;7.43;1.70;;;;;;;6.08;46.74;94327.09;5063829;28;20204;-75
2023/04/28 06:22:56;;;;;;;5.90;2.10;;;;;;;6.13;46.27;94315.69;5064261;28;20025;-75
2023/04/28 06:25:22;;;;;;;6.60;1.90;;;;;;;6.28;46.09;94320.09;5064175;28;20067;-76
2023/04/28 06:27:47;;;;;;;8.05;2.05;;;;;;;6.34;44.65;94324.31;5063749;28;20027;-76
2023/04/28 06:30:18;;;;;;;7.85;2.33;;;;;;;6.45;45.99;94323.16;5063880;28;20028;-77
2023/04/28 06:32:44;;;;;;;4.60;2.22;;;;;;;6.57;45.70;94320.97;5063356;28;20029;-77
2023/04/28 06:35:10;;;;;;;7.00;2.17;;;;;;;6.62;44.86;94323.56;5063630;28;20029;-77
2023/04/28 06:37:35;;;;;;;4.20;2.05;;;;;;;6.70;46.62;94319.53;5063590;28;20096;-77
2023/04/28 06:40:01;;;;;;;5.40;2.25;;;;;;;6.74;45.15;94322.44;5063713;28;20024;-77
2023/04/28 06:42:26;;;;;;;9.15;2.58;;;;;;;6.87;46.75;94308.53;5063493;28;20075;-74
2023/04/28 06:44:52;;;;;;;19.58;5.53;;;;;;;7.15;44.90;94317.56;5063713;28;20079;-76
2023/04/28 06:47:17;;;;;;;24.15;15.52;;;;;;;7.25;43.99;94310.59;5063423;28;20020;-77
2023/04/28 06:49:44;;;;;;;10.50;3.67;;;;;;;7.35;43.65;94302.53;5061694;28;20031;-75
2023/04/28 06:52:09;;;;;;;16.00;8.38;;;;;;;7.38;44.22;94312.56;5063102;28;20021;-75
2023/04/28 06:54:37;;;;;;;7.05;2.83;;;;;;;7.33;42.05;94297.50;5063493;28;20031;-75
2023/04/28 06:57:02;;;;;;;23.15;12.13;;;;;;;7.13;42.93;94313.63;5063438;28;20031;-73
2023/04/28 06:59:28;;;;;;;325.10;174.27;;;;;;;7.20;43.47;94303.47;5061743;28;20025;-73
2023/04/28 07:01:53;;;;;;;28.50;20.02;;;;;;;7.22;43.04;94311.94;5062384;28;20048;-73
2023/04/28 07:04:19;;;;;;;7.18;2.67;;;;;;;7.25;42.38;94311.38;5063901;28;20047;-73
2023/04/28 07:06:44;;;;;;;7.63;2.47;;;;;;;7.28;42.34;94308.16;5062986;28;20091;-73
2023/04/28 07:09:10;;;;;;;23.92;13.88;;;;;;;7.32;43.47;94311.03;5062893;28;20029;-74
2023/04/28 07:11:36;;;;;;;17.20;3.83;;;;;;;7.32;42.82;94311.81;5062449;28;20024;-73
2023/04/28 07:14:01;;;;;;;11.15;4.85;;;;;;;7.39;43.66;94317.59;5062926;28;20370;-73
2023/04/28 07:16:27;;;;;;;10.15;2.53;;;;;;;7.40;43.29;94303.25;5062899;28;20307;-73
2023/04/28 07:18:52;;;;;;;11.68;2.83;;;;;;;7.50;43.31;94307.66;5063419;28;20278;-73
2023/04/28 07:21:18;;;;;;;9.45;3.35;;;;;;;7.47;42.93;94302.13;5062842;28;20016;-73
2023/04/28 07:23:44;;;;;;;10.73;4.00;;;;;;;7.42;42.48;94305.63;5061768;28;20029;-73
2023/04/28 07:26:10;;;;;;;12.93;5.00;;;;;;;7.50;42.67;94310.31;5062666;28;20075;-73
2023/04/28 07:28:35;;;;;;;7.50;1.92;;;;;;;7.48;42.39;94309.03;5062896;28;20024;-73
2023/04/28 07:31:01;;;;;;;16.95;2.72;;;;;;;7.60;42.16;94306.75;5062565;28;20017;-73
2023/04/28 07:33:27;;;;;;;5.45;2.10;;;;;;;7.78;41.15;94303.38;5062610;28;20020;-73
2023/04/28 07:35:52;;;;;;;23.42;9.45;;;;;;;7.83;40.44;94303.28;5062532;28;20035;-73
2023/04/28 07:38:19;;;;;;;14.02;4.28;;;;;;;7.92;40.87;94300.81;5062312;28;20009;-73
2023/04/28 07:40:45;;;;;;;5.07;2.20;;;;;;;7.99;40.35;94297.78;5062276;28;20047;-73
2023/04/28 07:43:10;;;;;;;18.83;8.50;;;;;;;8.01;41.11;94300.97;5062220;28;20036;-73
2023/04/28 07:45:38;;;;;;;6.00;3.03;;;;;;;8.10;40.21;94315.19;5062340;28;20365;-73
2023/04/28 07:48:04;;;;;;;13.30;3.28;;;;;;;8.09;39.32;94308.28;5062012;28;20075;-73
2023/04/28 07:50:29;;;;;;;50.70;17.10;;;;;;;8.11;40.65;94300.81;5062275;28;20246;-73
2023/04/28 07:52:56;;;;;;;103.55;36.00;;;;;;;8.11;39.83;94308.00;5062169;28;20083;-72
2023/04/28 07:55:22;;;;;;;6.47;2.70;;;;;;;8.20;39.61;94301.78;5061310;28;20051;-73
2023/04/28 07:57:48;;;;;;;12.60;4.13;;;;;;;8.19;40.59;94297.53;5062543;28;20326;-73
2023/04/28 08:00:14;;;;;;;21.50;4.15;;;;;;;8.35;40.30;94297.31;5062110;28;20024;-72
2023/04/28 08:02:40;;;;;;;26.35;8.00;;;;;;;8.52;39.61;94304.78;5062262;28;20084;-73
2023/04/28 08:05:08;;;;;;;12.10;2.53;;;;;;;8.54;38.74;94298.09;5061971;28;20263;-73
2023/04/28 08:07:34;;;;;;;13.50;5.32;;;;;;;8.59;38.79;94305.25;5062317;28;20025;-74
2023/04/28 08:10:00;;;;;;;7.47;2.60;;;;;;;8.61;38.78;94290.56;5061000;28;20091;-73
2023/04/28 08:12:26;;;;;;;7.10;2.20;;;;;;;8.77;37.31;94307.06;5062053;28;20083;-73
2023/04/28 08:14:52;;;;;;;8.98;2.38;;;;;;;8.87;37.02;94307.97;5061986;28;20044;-73
2023/04/28 08:17:17;;;;;;;7.32;2.17;;;;;;;8.83;38.00;94300.59;5062163;28;20028;-73
2023/04/28 08:19:45;;;;;;;14.18;3.45;;;;;;;8.95;39.28;94299.34;5061715;28;20024;-74
2023/04/28 08:22:11;;;;;;;8.32;2.47;;;;;;;9.17;38.88;94304.03;5061842;28;20028;-74
2023/04/28 08:24:36;;;;;;;7.13;2.53;;;;;;;9.32;39.06;94297.63;5060910;28;20095;-74
2023/04/28 08:27:02;;;;;;;6.28;2.47;;;;;;;9.34;38.21;94292.81;5061353;28;20040;-73
2023/04/28 08:29:28;;;;;;;3.75;1.75;;;;;;;9.42;38.04;94300.91;5061899;28;20027;-73
2023/04/28 08:31:57;;;;;;;7.80;2.33;;;;;;;9.58;38.21;94303.28;5062008;28;20032;-73
2023/04/28 08:34:23;;;;;;;5.28;3.03;;;;;;;9.67;37.24;94290.88;5062065;28;20087;-73
2023/04/28 08:36:48;;;;;;;7.07;2.17;;;;;;;9.79;37.67;94288.50;5061741;28;20078;-73
2023/04/28 08:39:14;;;;;;;6.07;2.60;;;;;;;9.96;37.47;94292.41;5061756;28;20013;-73
2023/04/28 08:41:40;;;;;;;7.80;2.42;;;;;;;10.06;35.81;94307.41;5061832;28;20082;-73
2023/04/28 08:44:11;;;;;;;3.85;2.10;;;;;;;9.86;35.35;94295.28;5061732;28;20029;-73
2023/04/28 08:46:43;;;;;;;5.35;1.98;;;;;;;9.78;35.18;94294.88;5061527;28;20032;-73
2023/04/28 08:49:12;;;;;;;;;;;;;;;9.74;36.53;94291.25;5061592;28;20144;-73
2023/04/28 08:51:44;;;;;;;7.90;2.55;;;;;;;9.81;36.72;94286.31;5061586;28;19908;-73
2023/04/28 08:54:13;;;;;;;11.43;3.03;;;;;;;9.95;36.55;94282.84;5061743;28;20025;-73
2023/04/28 08:56:38;;;;;;;18.00;2.55;;;;;;;10.06;37.03;94286.88;5065327;28;20024;-73
2023/04/28 08:59:04;;;;;;;4.47;1.52;;;;;;;10.15;35.20;94290.41;5065396;28;20021;-73
2023/04/28 09:01:33;;;;;;;5.72;2.00;;;;;;;10.13;35.52;94281.13;5065511;28;20031;-73
2023/04/28 09:04:02;;;;;;;3.92;1.83;;;;;;;10.03;36.13;94292.78;5064972;28;20020;-73
2023/04/28 09:06:35;;;;;;;7.40;1.75;;;;;;;9.92;35.09;94275.47;5065095;28;20049;-73
2023/04/28 09:09:23;;;;;;;7.28;2.30;;;;;;;10.00;35.78;94264.09;5065469;28;20068;-73
2023/04/28 09:11:57;;;;;;;7.28;2.05;;;;;;;10.18;35.54;94273.06;5064989;28;20025;-73
2023/04/28 09:14:28;;;;;;;9.90;2.00;;;;;;;10.14;36.17;94269.41;5065087;28;20031;-73
2023/04/28 09:16:53;;;;;;;6.88;1.85;;;;;;;10.20;36.05;94268.22;5065498;28;20052;-74
2023/04/28 09:19:19;;;;;;;4.63;1.75;;;;;;;10.27;36.27;94255.25;5065404;28;20033;-74
2023/04/28 09:22:04;;;;;;;13.48;1.80;;;;;;;10.34;35.86;94252.19;5064784;28;20029;-73
2023/04/28 09:24:45;;;;;;;6.18;1.67;;;;;;;10.38;35.60;94261.97;5064927;28;20028;-73
2023/04/28 09:27:11;;;;;;;9.15;2.25;;;;;;;10.44;35.28;94247.44;5065161;28;20334;-73
2023/04/28 09:29:37;;;;;;;2.30;1.50;;;;;;;10.56;35.81;94251.41;5064606;28;20028;-72
2023/04/28 09:32:26;;;;;;;6.85;2.10;;;;;;;10.55;35.39;94239.97;5064701;28;20025;-73
2023/04/28 09:34:55;;;;;;;7.68;2.10;;;;;;;10.55;35.58;94245.31;5064793;28;20032;-73
2023/04/28 09:37:25;;;;;;;5.53;2.03;;;;;;;10.65;35.18;94252.28;5064911;28;20032;-73
2023/04/28 09:39:53;;;;;;;3.67;1.75;;;;;;;10.74;35.17;94242.44;5064440;28;20025;-73
2023/04/28 09:42:38;;;;;;;5.82;2.30;;;;;;;10.81;34.73;94242.03;5064377;28;20021;-73
2023/04/28 10:03:14;;;;;;;11.50;2.25;;;;;;;11.93;32.25;94210.78;5140953;27;20390;-73
2023/04/28 10:05:40;;;;;;;6.10;1.73;;;;;;;11.83;31.93;94212.59;5140913;27;20023;-73
2023/04/28 10:08:06;;;;;;;3.28;1.60;;;;;;;11.60;31.58;94203.13;5140838;27;20061;-73
2023/04/28 10:10:32;;;;;;;14.27;1.90;;;;;;;11.56;32.88;94204.84;5140679;27;20027;-73
2023/04/28 10:12:59;;;;;;;8.88;4.88;;;;;;;11.56;33.04;94194.16;5140733;27;20042;-73
2023/04/28 10:15:24;;;;;;;6.93;2.60;;;;;;;11.52;32.58;94206.56;5140732;27;20089;-72
2023/04/28 10:17:51;;;;;;;14.27;2.25;;;;;;;11.57;32.85;94209.09;5140466;27;20023;-72
2023/04/28 10:20:18;;;;;;;5.57;2.00;;;;;;;11.60;32.83;94203.13;5140738;27;20096;-73
2023/04/28 10:23:13;;;;;;;5.78;2.55;;;;;;;11.57;32.33;94198.41;5140549;27;20039;-72
2023/04/28 10:25:41;;;;;;;4.07;1.65;;;;;;;11.51;33.09;94196.97;5140258;28;20027;-72
2023/04/28 10:28:08;;;;;;;7.40;2.22;;;;;;;11.62;32.59;94196.41;5140370;27;20019;-73
2023/04/28 10:30:34;;;;;;;6.15;1.75;;;;;;;11.67;32.14;94198.13;5140352;27;20019;-72
2023/04/28 10:33:12;;;;;;;7.90;3.20;;;;;;;11.76;31.92;94201.59;5140528;27;20224;-72
2023/04/28 10:35:46;;;;;;;10.63;1.67;;;;;;;11.80;32.03;94194.53;5140024;27;20047;-73
2023/04/28 10:38:15;;;;;;;6.03;1.52;;;;;;;11.79;32.29;94182.28;5140061;27;20038;-73
2023/04/28 10:40:47;;;;;;;3.85;1.85;;;;;;;11.97;31.88;94183.13;5140086;27;20049;-72
2023/04/28 10:43:33;;;;;;;10.27;1.98;;;;;;;12.10;32.14;94186.72;5140019;27;20071;-72
2023/04/28 10:46:01;;;;;;;8.88;1.73;;;;;;;12.14;30.78;94178.88;5139790;28;20035;-73
2023/04/28 10:48:32;;;;;;;6.40;1.42;;;;;;;12.11;30.61;94169.63;5139767;27;20339;-72
2023/04/28 10:51:04;;;;;;;3.92;1.63;;;;;;;12.13;30.55;94172.75;5139901;27;20091;-73
2023/04/28 10:53:41;;;;;;;1.88;1.15;;;;;;;12.04;30.08;94159.38;5139676;27;20031;-72
2023/04/28 10:56:07;;;;;;;8.60;2.15;;;;;;;12.10;31.16;94165.34;5139974;27;20064;-73
2023/04/28 10:58:32;;;;;;;6.13;2.03;;;;;;;12.10;29.47;94167.25;5140037;27;20027;-73
2023/04/28 11:01:18;;;;;;;4.85;2.15;;;;;;;12.22;30.80;94160.16;5141153;27;20128;-73
2023/04/28 11:03:47;;;;;;;6.18;2.30;;;;;;;12.38;30.04;94163.13;5148684;27;20098;-72
2023/04/28 11:06:33;;;;;;;4.22;2.08;;;;;;;12.53;29.37;94167.19;5146425;27;20091;-73
2023/04/28 11:09:11;;;;;;;3.92;1.58;;;;;;;12.58;29.02;94163.59;5146390;27;20343;-72
2023/04/28 11:11:38;;;;;;;5.65;2.00;;;;;;;12.64;29.86;94162.31;5146071;27;20011;-72
2023/04/28 11:14:19;;;;;;;4.07;1.35;;;;;;;12.70;28.99;94163.72;5146411;27;20034;-73
2023/04/28 11:16:51;;;;;;;5.05;1.75;;;;;;;12.75;28.77;94150.16;5146235;27;20224;-73
2023/04/28 11:19:21;;;;;;;16.42;2.70;;;;;;;12.87;29.60;94154.84;5146354;27;20022;-73
2023/04/28 11:21:47;;;;;;;5.82;1.85;;;;;;;12.95;29.83;94131.84;5146103;27;20046;-72
2023/04/28 11:24:13;;;;;;;14.90;5.43;;;;;;;13.13;29.43;94143.28;5145990;27;20062;-73
2023/04/28 11:26:40;;;;;;;6.13;1.95;;;;;;;13.36;30.10;94146.50;5146223;27;20023;-74
2023/04/28 11:29:05;;;;;;;6.65;2.10;;;;;;;13.51;29.14;94137.13;5146085;27;20034;-74
2023/04/28 11:31:32;;;;;;;13.95;2.45;;;;;;;13.61;28.72;94145.56;5145911;27;20035;-73
2023/04/28 11:34:04;;;;;;;3.30;1.60;;;;;;;13.46;26.33;94142.69;5146110;27;20019;-73
2023/04/28 11:36:39;;;;;;;;;;;;;;;13.49;26.49;94128.63;5146484;27;20015;-73
2023/04/28 11:39:07;;;;;;;8.85;1.63;;;;;;;13.45;26.89;94133.84;5145944;27;19943;-73
2023/04/28 11:41:41;;;;;;;3.50;1.10;;;;;;;13.53;26.97;94118.84;5146002;27;20043;-73
2023/04/28 11:44:14;;;;;;;8.48;1.60;;;;;;;13.67;27.82;94119.38;5146228;27;20038;-73
2023/04/28 11:46:50;;;;;;;7.55;1.55;;;;;;;13.76;26.52;94117.44;5146246;27;20049;-73
2023/04/28 11:49:16;;;;;;;7.80;1.92;;;;;;;13.86;26.99;94118.94;5145941;27;20084;-73
2023/04/28 11:51:44;;;;;;;7.60;1.80;;;;;;;13.93;27.19;94111.13;5146022;27;20022;-73
2023/04/28 11:54:10;;;;;;;17.52;1.92;;;;;;;14.02;27.48;94124.47;5146188;27;20317;-73
2023/04/28 11:56:45;;;;;;;11.05;1.77;;;;;;;14.18;25.60;94120.06;5145885;27;20039;-73